Time;durP1;ratioP1;P1;durP2;ratioP2;P2;SDS_P1;SDS_P2;PMS_P1;PMS_P2;Temp;Humidity;BMP_temperature;BMP_pressure;BME280_temperature;BME280_humidity;BME280_pressure;Samples;Min_cycle;Max_cycle;Signal;HPM_P1;HPM_P2
2021/08/20 00:00:10;;;;;;;16.80;10.23;;;;;;;;;;2127423;27;20066;-43
2021/08/20 00:01:11;;;;;;;16.55;11.27;;;;;;;;;;2131225;27;20058;-46
2021/08/20 00:02:12;;;;;;;15.30;10.50;;;;;;;;;;2129626;27;20066;-44
2021/08/20 00:03:13;;;;;;;16.85;10.88;;;;;;;;;;2127501;27;20388;-45
2021/08/20 00:04:15;;;;;;;15.43;10.07;;;;;;;;;;2131189;27;20046;-46
2021/08/20 00:05:16;;;;;;;16.10;10.52;;;;;;;;;;2129091;27;20046;-43
2021/08/20 00:06:17;;;;;;;15.02;10.65;;;;;;;;;;2128490;27;20138;-44
2021/08/20 00:07:18;;;;;;;21.60;12.02;;;;;;;;;;2131084;27;20480;-45
2021/08/20 00:08:19;;;;;;;16.43;11.00;;;;;;;;;;2128983;27;20042;-45
2021/08/20 00:09:21;;;;;;;14.55;11.13;;;;;;;;;;2128824;27;20046;-43
2021/08/20 00:10:22;;;;;;;15.00;11.20;;;;;;;;;;2131184;27;20051;-47
2021/08/20 00:11:23;;;;;;;14.30;10.88;;;;;;;;;;2126619;27;20130;-44
2021/08/20 00:12:24;;;;;;;15.20;11.17;;;;;;;;;;2128638;27;20050;-46
2021/08/20 00:13:25;;;;;;;16.23;10.63;;;;;;;;;;2132100;27;20049;-45
2021/08/20 00:14:26;;;;;;;15.83;11.10;;;;;;;;;;2129339;27;20042;-47
2021/08/20 00:15:30;;;;;;;14.93;11.32;;;;;;;;;;2131335;27;20054;-45
2021/08/20 00:16:31;;;;;;;16.08;10.35;;;;;;;;;;2132654;27;20605;-44
2021/08/20 00:17:32;;;;;;;15.00;10.55;;;;;;;;;;2130023;27;20039;-44
2021/08/20 00:18:34;;;;;;;13.87;10.77;;;;;;;;;;2124189;27;20551;-44
2021/08/20 00:19:35;;;;;;;13.93;10.20;;;;;;;;;;2124003;28;20129;-43
2021/08/20 00:20:37;;;;;;;15.32;10.68;;;;;;;;;;2126894;27;20082;-44
2021/08/20 00:21:38;;;;;;;14.68;10.38;;;;;;;;;;2132599;27;20149;-44
2021/08/20 00:22:40;;;;;;;15.80;9.50;;;;;;;;;;2132661;27;20590;-44
2021/08/20 00:23:40;;;;;;;14.77;10.95;;;;;;;;;;2127826;27;20148;-45
2021/08/20 00:24:41;;;;;;;15.93;10.03;;;;;;;;;;2132581;27;20042;-44
2021/08/20 00:25:42;;;;;;;14.27;10.50;;;;;;;;;;2131784;27;20130;-44
2021/08/20 00:26:43;;;;;;;15.10;9.73;;;;;;;;;;2127536;27;20122;-46
2021/08/20 00:27:44;;;;;;;17.63;10.85;;;;;;;;;;2132494;27;20464;-44
2021/08/20 00:28:46;;;;;;;17.80;10.65;;;;;;;;;;2132257;27;20035;-44
2021/08/20 00:29:46;;;;;;;16.05;9.48;;;;;;;;;;2128517;27;20039;-43
2021/08/20 00:30:48;;;;;;;13.27;10.20;;;;;;;;;;2132470;27;20491;-45
2021/08/20 00:31:49;;;;;;;15.32;10.90;;;;;;;;;;2131471;27;20134;-44
2021/08/20 00:32:50;;;;;;;14.20;10.07;;;;;;;;;;2126761;27;20123;-44
2021/08/20 00:33:51;;;;;;;15.18;9.73;;;;;;;;;;2124107;28;20366;-44
2021/08/20 00:34:53;;;;;;;14.67;9.87;;;;;;;;;;2124605;27;20042;-44
2021/08/20 00:35:54;;;;;;;16.10;10.27;;;;;;;;;;2125744;27;20063;-44
2021/08/20 00:36:55;;;;;;;16.65;10.40;;;;;;;;;;2123924;28;20075;-44
2021/08/20 00:37:56;;;;;;;14.80;10.20;;;;;;;;;;2125360;27;20083;-44
2021/08/20 00:38:57;;;;;;;14.43;10.27;;;;;;;;;;2128934;27;20043;-43
2021/08/20 00:39:59;;;;;;;12.65;9.70;;;;;;;;;;2132500;27;20038;-45
2021/08/20 00:41:00;;;;;;;14.43;9.35;;;;;;;;;;2129650;27;20183;-45
2021/08/20 00:42:01;;;;;;;13.83;9.90;;;;;;;;;;2130664;27;20042;-44
2021/08/20 00:43:02;;;;;;;14.95;9.90;;;;;;;;;;2132547;27;20281;-45
2021/08/20 00:44:03;;;;;;;12.40;9.53;;;;;;;;;;2129115;27;20047;-44
2021/08/20 00:45:05;;;;;;;13.70;9.70;;;;;;;;;;2131214;27;20333;-44
2021/08/20 00:46:07;;;;;;;14.85;9.57;;;;;;;;;;2132428;27;20145;-45
2021/08/20 00:47:08;;;;;;;;;;;;;;;;;;2129545;27;20043;-44
2021/08/20 00:48:09;;;;;;;14.40;10.02;;;;;;;;;;2124641;27;20284;-45
2021/08/20 00:49:10;;;;;;;15.27;10.70;;;;;;;;;;2123872;28;20059;-43
2021/08/20 00:50:11;;;;;;;13.93;10.30;;;;;;;;;;2126599;27;20043;-44
2021/08/20 00:51:15;;;;;;;17.25;10.80;;;;;;;;;;2132191;27;20098;-44
2021/08/20 00:52:17;;;;;;;14.82;10.45;;;;;;;;;;2130790;27;20607;-45
2021/08/20 00:53:18;;;;;;;15.75;10.32;;;;;;;;;;2127785;27;20129;-43
2021/08/20 00:54:20;;;;;;;13.33;10.43;;;;;;;;;;2132422;27;20452;-44
2021/08/20 00:55:23;;;;;;;;;;;;;;;;;;2132396;27;20265;-44
2021/08/20 00:56:25;;;;;;;16.02;9.35;;;;;;;;;;2128144;27;20020;-46
2021/08/20 00:57:26;;;;;;;13.25;9.38;;;;;;;;;;2132434;27;20042;-43
2021/08/20 00:58:27;;;;;;;12.05;9.27;;;;;;;;;;2131993;27;20043;-45
2021/08/20 00:59:29;;;;;;;13.13;9.80;;;;;;;;;;2128463;27;20078;-45
2021/08/20 01:00:30;;;;;;;17.30;10.20;;;;;;;;;;2132352;27;20552;-45
2021/08/20 01:01:31;;;;;;;14.00;9.98;;;;;;;;;;2131034;27;20050;-44
2021/08/20 01:02:32;;;;;;;14.73;9.98;;;;;;;;;;2127495;27;20047;-42
2021/08/20 01:03:34;;;;;;;15.15;9.55;;;;;;;;;;2123905;28;20055;-44
2021/08/20 01:04:35;;;;;;;11.35;9.48;;;;;;;;;;2124654;27;20488;-45
2021/08/20 01:05:36;;;;;;;13.38;10.27;;;;;;;;;;2129748;27;20039;-44
2021/08/20 01:06:39;;;;;;;16.77;9.53;;;;;;;;;;2132308;27;20430;-45
2021/08/20 01:07:41;;;;;;;15.52;9.75;;;;;;;;;;2129612;27;20565;-45
2021/08/20 01:08:41;;;;;;;15.32;9.18;;;;;;;;;;2130389;27;20051;-43
2021/08/20 01:09:43;;;;;;;13.47;9.50;;;;;;;;;;2132483;27;20047;-45
2021/08/20 01:10:43;;;;;;;13.38;9.50;;;;;;;;;;2129123;27;20045;-45
2021/08/20 01:11:45;;;;;;;12.93;8.87;;;;;;;;;;2129913;27;20406;-45
2021/08/20 01:12:45;;;;;;;14.23;9.02;;;;;;;;;;2132263;27;20042;-44
2021/08/20 01:13:47;;;;;;;13.13;9.07;;;;;;;;;;2130115;27;20467;-43
2021/08/20 01:14:49;;;;;;;14.45;9.82;;;;;;;;;;2124902;27;20480;-44
2021/08/20 01:15:53;;;;;;;15.27;10.20;;;;;;;;;;2123707;28;20050;-47
2021/08/20 01:16:54;;;;;;;15.13;9.38;;;;;;;;;;2126334;27;20039;-47
2021/08/20 01:17:55;;;;;;;10.93;8.20;;;;;;;;;;2131921;27;20042;-44
2021/08/20 01:18:56;;;;;;;12.18;8.73;;;;;;;;;;2132259;27;20066;-45
2021/08/20 01:19:59;;;;;;;13.38;10.05;;;;;;;;;;2127479;27;20047;-44
2021/08/20 01:21:01;;;;;;;16.33;8.98;;;;;;;;;;2132386;27;20146;-44
2021/08/20 01:22:03;;;;;;;12.23;9.30;;;;;;;;;;2131824;27;20133;-45
2021/08/20 01:23:06;;;;;;;13.02;8.60;;;;;;;;;;2127374;27;20047;-44
2021/08/20 01:24:07;;;;;;;13.35;8.75;;;;;;;;;;2126069;27;20047;-48
2021/08/20 01:25:09;;;;;;;14.30;9.68;;;;;;;;;;2123706;27;20043;-43
2021/08/20 01:26:10;;;;;;;15.50;9.05;;;;;;;;;;2128287;27;20054;-44
2021/08/20 01:27:11;;;;;;;15.02;9.10;;;;;;;;;;2132247;27;20074;-44
2021/08/20 01:28:12;;;;;;;10.77;8.80;;;;;;;;;;2131025;27;20443;-45
2021/08/20 01:29:16;;;;;;;13.75;8.75;;;;;;;;;;2130044;27;20599;-43
2021/08/20 01:30:17;;;;;;;12.48;9.20;;;;;;;;;;2132244;27;20053;-46
2021/08/20 01:31:18;;;;;;;14.00;8.65;;;;;;;;;;2129972;27;20129;-43
2021/08/20 01:32:19;;;;;;;12.27;9.10;;;;;;;;;;2129218;27;20043;-43
2021/08/20 01:33:20;;;;;;;13.60;9.00;;;;;;;;;;2132145;27;20558;-43
2021/08/20 01:34:21;;;;;;;12.70;8.07;;;;;;;;;;2130122;27;20096;-44
2021/08/20 01:35:22;;;;;;;13.85;8.55;;;;;;;;;;2126357;27;20179;-43
2021/08/20 01:36:23;;;;;;;13.33;8.63;;;;;;;;;;2123528;28;20445;-44
2021/08/20 01:37:24;;;;;;;14.63;8.80;;;;;;;;;;2125091;27;20315;-44
2021/08/20 01:38:26;;;;;;;12.67;8.30;;;;;;;;;;2130684;27;20050;-46
2021/08/20 01:39:27;;;;;;;13.18;8.82;;;;;;;;;;2132119;27;20532;-45
2021/08/20 01:40:29;;;;;;;11.10;8.83;;;;;;;;;;2128758;27;20499;-44
2021/08/20 01:41:30;;;;;;;13.48;8.80;;;;;;;;;;2130817;27;20055;-48
2021/08/20 01:42:31;;;;;;;15.13;9.38;;;;;;;;;;2132082;27;20207;-45
2021/08/20 01:43:32;;;;;;;14.20;9.38;;;;;;;;;;2129258;27;20635;-44
2021/08/20 01:44:34;;;;;;;13.40;9.20;;;;;;;;;;2131515;27;20158;-44
2021/08/20 01:45:35;;;;;;;13.25;8.52;;;;;;;;;;2126347;27;20054;-45
2021/08/20 01:46:36;;;;;;;;;;;;;;;;;;2126574;27;20179;-46
2021/08/20 01:47:37;;;;;;;15.43;9.35;;;;;;;;;;2131983;27;19919;-44
2021/08/20 01:48:45;;;;;;;12.40;8.90;;;;;;;;;;2132111;27;20046;-43
2021/08/20 01:49:46;;;;;;;12.63;8.63;;;;;;;;;;2126508;27;20289;-44
2021/08/20 01:50:47;;;;;;;12.38;8.75;;;;;;;;;;2132108;27;20129;-44
2021/08/20 01:51:48;;;;;;;12.37;8.80;;;;;;;;;;2131521;27;20043;-43
2021/08/20 01:52:49;;;;;;;12.05;9.02;;;;;;;;;;2124741;27;20045;-45
2021/08/20 01:53:51;;;;;;;14.23;9.10;;;;;;;;;;2123543;28;20070;-45
2021/08/20 01:54:52;;;;;;;15.93;9.77;;;;;;;;;;2124095;27;20057;-44
2021/08/20 01:55:54;;;;;;;11.97;9.40;;;;;;;;;;2128399;27;20050;-44
2021/08/20 01:56:55;;;;;;;12.52;9.55;;;;;;;;;;2132131;27;20045;-46
2021/08/20 01:57:56;;;;;;;12.50;9.37;;;;;;;;;;2129999;27;20391;-44
2021/08/20 01:58:57;;;;;;;15.43;9.02;;;;;;;;;;2127257;27;20070;-44
2021/08/20 02:00:02;;;;;;;13.48;8.93;;;;;;;;;;2123529;28;20054;-46
2021/08/20 02:01:03;;;;;;;13.13;9.13;;;;;;;;;;2124865;27;20578;-44
2021/08/20 02:02:05;;;;;;;13.07;8.83;;;;;;;;;;2129930;27;20043;-44
2021/08/20 02:03:06;;;;;;;12.32;8.27;;;;;;;;;;2131888;27;20129;-43
2021/08/20 02:04:07;;;;;;;11.68;8.55;;;;;;;;;;2128863;27;20134;-44
2021/08/20 02:05:09;;;;;;;14.05;9.45;;;;;;;;;;2129574;27;20133;-44
2021/08/20 02:06:10;;;;;;;11.45;8.35;;;;;;;;;;2132095;27;20053;-45
2021/08/20 02:07:11;;;;;;;11.50;9.10;;;;;;;;;;2128510;27;20522;-44
2021/08/20 02:08:12;;;;;;;14.27;9.20;;;;;;;;;;2130639;27;20050;-43
2021/08/20 02:09:13;;;;;;;14.60;9.05;;;;;;;;;;2131936;27;20555;-45
2021/08/20 02:10:14;;;;;;;14.45;8.50;;;;;;;;;;2126649;27;20066;-46
2021/08/20 02:11:16;;;;;;;10.57;8.43;;;;;;;;;;2131124;27;20042;-44
2021/08/20 02:12:17;;;;;;;12.50;8.07;;;;;;;;;;2131008;27;20535;-45
2021/08/20 02:13:18;;;;;;;11.85;8.85;;;;;;;;;;2125985;27;20071;-45
2021/08/20 02:14:19;;;;;;;13.57;8.47;;;;;;;;;;2131872;27;20414;-44
2021/08/20 02:15:20;;;;;;;14.73;9.82;;;;;;;;;;2132047;27;20071;-45
2021/08/20 02:16:21;;;;;;;12.87;8.80;;;;;;;;;;2125609;27;20047;-43
2021/08/20 02:17:22;;;;;;;13.90;8.45;;;;;;;;;;2131931;27;20273;-46
2021/08/20 02:18:23;;;;;;;13.70;9.30;;;;;;;;;;2131834;27;20488;-43
2021/08/20 02:19:24;;;;;;;13.73;8.82;;;;;;;;;;2127411;27;20137;-47
2021/08/20 02:20:26;;;;;;;11.77;9.25;;;;;;;;;;2131812;27;20150;-46
2021/08/20 02:21:26;;;;;;;10.30;8.27;;;;;;;;;;2131281;27;20047;-45
2021/08/20 02:22:28;;;;;;;12.80;8.40;;;;;;;;;;2127436;27;20109;-44
2021/08/20 02:23:28;;;;;;;14.57;9.35;;;;;;;;;;2123299;28;20082;-46
2021/08/20 02:24:30;;;;;;;10.93;7.97;;;;;;;;;;2124148;27;20078;-47
2021/08/20 02:25:30;;;;;;;14.38;9.45;;;;;;;;;;2128982;27;20054;-45
2021/08/20 02:26:32;;;;;;;14.10;9.10;;;;;;;;;;2131961;27;20059;-44
2021/08/20 02:27:33;;;;;;;12.32;8.73;;;;;;;;;;2130294;27;20060;-47
2021/08/20 02:28:34;;;;;;;12.77;8.63;;;;;;;;;;2126766;27;20050;-45
2021/08/20 02:29:35;;;;;;;12.52;8.30;;;;;;;;;;2123250;28;20395;-48
2021/08/20 02:30:36;;;;;;;13.03;8.80;;;;;;;;;;2123811;27;20061;-44
2021/08/20 02:31:37;;;;;;;13.50;8.85;;;;;;;;;;2128522;27;20042;-46
2021/08/20 02:32:38;;;;;;;12.40;8.60;;;;;;;;;;2131646;27;20042;-44
2021/08/20 02:33:54;;;;;;;11.73;8.60;;;;;;;;;;2128371;27;20403;-46
2021/08/20 02:34:55;;;;;;;12.65;8.38;;;;;;;;;;2130347;27;20175;-45
2021/08/20 02:35:56;;;;;;;14.90;9.13;;;;;;;;;;2131737;27;20042;-46
2021/08/20 02:36:57;;;;;;;11.80;9.32;;;;;;;;;;2126626;27;20038;-44
2021/08/20 02:37:58;;;;;;;13.17;8.50;;;;;;;;;;2131096;27;20486;-46
2021/08/20 02:38:59;;;;;;;15.15;8.57;;;;;;;;;;2131845;27;20486;-46
2021/08/20 02:40:00;;;;;;;13.13;8.90;;;;;;;;;;2129221;27;20042;-46
2021/08/20 02:41:01;;;;;;;13.38;8.90;;;;;;;;;;2123040;28;20522;-45
2021/08/20 02:42:03;;;;;;;11.75;8.77;;;;;;;;;;2123185;28;20073;-44
2021/08/20 02:43:04;;;;;;;10.80;8.05;;;;;;;;;;2126489;27;20095;-44
2021/08/20 02:44:05;;;;;;;11.47;7.80;;;;;;;;;;2131630;27;20054;-46
2021/08/20 02:45:07;;;;;;;12.05;8.30;;;;;;;;;;2131285;27;20126;-43
2021/08/20 02:46:08;;;;;;;12.27;7.43;;;;;;;;;;2127381;27;20336;-45
2021/08/20 02:47:09;;;;;;;13.82;8.60;;;;;;;;;;2131810;27;20042;-43
2021/08/20 02:48:10;;;;;;;11.90;8.23;;;;;;;;;;2131137;27;20584;-45
2021/08/20 02:49:11;;;;;;;13.25;8.98;;;;;;;;;;2128677;27;20046;-45
2021/08/20 02:50:12;;;;;;;12.30;8.30;;;;;;;;;;2131530;27;20054;-45
2021/08/20 02:51:13;;;;;;;12.18;8.18;;;;;;;;;;2130801;27;20392;-44
2021/08/20 02:52:14;;;;;;;12.77;8.63;;;;;;;;;;2126385;27;20049;-45
2021/08/20 02:53:15;;;;;;;12.27;8.88;;;;;;;;;;2131446;27;20046;-46
2021/08/20 02:54:16;;;;;;;13.18;9.45;;;;;;;;;;2129844;27;20050;-48
2021/08/20 02:55:17;;;;;;;14.35;9.15;;;;;;;;;;2126563;27;20475;-44
2021/08/20 02:56:19;;;;;;;15.23;9.13;;;;;;;;;;2122830;28;20079;-44
2021/08/20 02:57:23;;;;;;;13.13;9.18;;;;;;;;;;2123584;27;20122;-48
2021/08/20 02:58:24;;;;;;;10.27;8.20;;;;;;;;;;2128793;27;20050;-47
2021/08/20 02:59:25;;;;;;;11.25;8.48;;;;;;;;;;2131232;27;20047;-45
2021/08/20 03:00:26;;;;;;;13.10;9.03;;;;;;;;;;2128779;27;20731;-48
2021/08/20 03:01:27;;;;;;;11.80;9.10;;;;;;;;;;2130544;27;20087;-44
2021/08/20 03:02:28;;;;;;;13.55;8.98;;;;;;;;;;2131436;27;20046;-45
2021/08/20 03:03:29;;;;;;;19.13;9.45;;;;;;;;;;2128802;27;20551;-47
2021/08/20 03:04:30;;;;;;;11.77;8.25;;;;;;;;;;2129153;27;20505;-43
2021/08/20 03:05:31;;;;;;;13.25;8.90;;;;;;;;;;2131358;27;20141;-44
2021/08/20 03:06:34;;;;;;;13.57;9.10;;;;;;;;;;2127785;27;20444;-45
2021/08/20 03:07:34;;;;;;;13.75;9.05;;;;;;;;;;2122584;27;20051;-46
2021/08/20 03:08:36;;;;;;;13.40;9.07;;;;;;;;;;2122740;28;20051;-45
2021/08/20 03:09:37;;;;;;;;;;;;;;;;;;2125520;27;20127;-46
2021/08/20 03:10:40;;;;;;;16.30;9.05;;;;;;;;;;2130885;27;19919;-47
2021/08/20 03:11:41;;;;;;;13.25;9.15;;;;;;;;;;2131330;27;20558;-45
2021/08/20 03:12:43;;;;;;;10.10;8.27;;;;;;;;;;2126441;27;20055;-45
2021/08/20 03:13:44;;;;;;;13.15;9.00;;;;;;;;;;2131339;27;20583;-47
2021/08/20 03:14:45;;;;;;;11.93;8.37;;;;;;;;;;2131328;27;20050;-44
2021/08/20 03:15:46;;;;;;;15.45;9.77;;;;;;;;;;2127765;27;20440;-44
2021/08/20 03:16:47;;;;;;;13.43;9.63;;;;;;;;;;2131294;27;20049;-45
2021/08/20 03:17:48;;;;;;;13.43;9.10;;;;;;;;;;2130604;27;20483;-45
2021/08/20 03:18:49;;;;;;;13.38;9.45;;;;;;;;;;2127130;27;20074;-47
2021/08/20 03:19:50;;;;;;;12.40;9.10;;;;;;;;;;2131086;27;20540;-45
2021/08/20 03:20:51;;;;;;;11.88;9.70;;;;;;;;;;2130611;27;20511;-44
2021/08/20 03:21:52;;;;;;;14.33;9.07;;;;;;;;;;2128231;27;20050;-46
2021/08/20 03:22:53;;;;;;;13.27;8.75;;;;;;;;;;2131287;27;20125;-45
2021/08/20 03:23:55;;;;;;;12.10;8.52;;;;;;;;;;2130114;27;20390;-46
2021/08/20 03:24:56;;;;;;;10.77;8.57;;;;;;;;;;2128264;27;20090;-46
2021/08/20 03:25:57;;;;;;;14.27;9.20;;;;;;;;;;2131287;27;20050;-45
2021/08/20 03:26:58;;;;;;;14.43;9.77;;;;;;;;;;2128969;27;20560;-44
2021/08/20 03:28:02;;;;;;;11.17;8.90;;;;;;;;;;2128813;27;20039;-48
2021/08/20 03:29:02;;;;;;;13.60;9.18;;;;;;;;;;2131577;27;20121;-45
2021/08/20 03:30:04;;;;;;;16.10;9.80;;;;;;;;;;2129005;27;20050;-47
2021/08/20 03:31:05;;;;;;;14.70;9.48;;;;;;;;;;2129257;27;20042;-45
2021/08/20 03:32:07;;;;;;;16.73;10.27;;;;;;;;;;2131548;27;20506;-48
2021/08/20 03:33:08;;;;;;;17.13;9.10;;;;;;;;;;2128023;27;20076;-45
2021/08/20 03:34:09;;;;;;;13.90;9.03;;;;;;;;;;2129029;27;20059;-45
2021/08/20 03:35:10;;;;;;;12.60;10.13;;;;;;;;;;2131383;27;20043;-44
2021/08/20 03:36:11;;;;;;;13.70;10.07;;;;;;;;;;2128716;27;20135;-43
2021/08/20 03:37:13;;;;;;;13.60;9.20;;;;;;;;;;2129664;27;20293;-46
2021/08/20 03:38:14;;;;;;;12.77;9.20;;;;;;;;;;2131466;27;20039;-44
2021/08/20 03:39:15;;;;;;;13.25;9.50;;;;;;;;;;2127306;27;20145;-45
2021/08/20 03:40:16;;;;;;;14.33;9.97;;;;;;;;;;2130678;27;20487;-47
2021/08/20 03:41:17;;;;;;;11.80;9.23;;;;;;;;;;2131264;27;20082;-45
2021/08/20 03:42:18;;;;;;;14.82;9.43;;;;;;;;;;2125169;27;20043;-45
2021/08/20 03:43:20;;;;;;;17.88;9.75;;;;;;;;;;2131474;27;20043;-43
2021/08/20 03:44:21;;;;;;;14.60;9.35;;;;;;;;;;2131398;27;20555;-43
2021/08/20 03:45:22;;;;;;;14.65;10.02;;;;;;;;;;2126518;27;20460;-46
2021/08/20 03:46:23;;;;;;;15.77;9.43;;;;;;;;;;2131239;27;20513;-45
2021/08/20 03:47:25;;;;;;;14.23;9.80;;;;;;;;;;2130719;27;20111;-45
2021/08/20 03:48:25;;;;;;;14.57;9.73;;;;;;;;;;2129136;27;20575;-45
2021/08/20 03:49:27;;;;;;;13.93;8.95;;;;;;;;;;2131351;27;20047;-44
2021/08/20 03:50:28;;;;;;;16.67;10.88;;;;;;;;;;2129121;27;20133;-46
2021/08/20 03:51:29;;;;;;;16.70;9.85;;;;;;;;;;2127783;27;20122;-45
2021/08/20 03:52:30;;;;;;;14.60;9.90;;;;;;;;;;2129027;27;20494;-44
2021/08/20 03:53:31;;;;;;;19.37;9.77;;;;;;;;;;2128619;27;20038;-45
2021/08/20 03:54:32;;;;;;;16.00;9.65;;;;;;;;;;2128984;27;20055;-47
2021/08/20 03:55:33;;;;;;;14.53;9.87;;;;;;;;;;2131225;27;20054;-46
2021/08/20 03:56:34;;;;;;;17.38;10.32;;;;;;;;;;2127870;27;20047;-45
2021/08/20 03:57:35;;;;;;;15.73;9.87;;;;;;;;;;2124790;27;20434;-43
2021/08/20 03:58:37;;;;;;;15.85;9.48;;;;;;;;;;2122808;28;20147;-45
2021/08/20 03:59:38;;;;;;;16.08;10.07;;;;;;;;;;2124946;27;20482;-44
2021/08/20 04:00:39;;;;;;;15.77;9.90;;;;;;;;;;2129821;27;20039;-45
2021/08/20 04:01:40;;;;;;;17.65;9.68;;;;;;;;;;2131286;27;20095;-44
2021/08/20 04:02:42;;;;;;;14.43;10.75;;;;;;;;;;2127447;27;20484;-45
2021/08/20 04:03:43;;;;;;;14.65;9.65;;;;;;;;;;2130498;27;20070;-44
2021/08/20 04:04:44;;;;;;;14.43;9.53;;;;;;;;;;2131318;27;20175;-46
2021/08/20 04:05:45;;;;;;;16.75;10.27;;;;;;;;;;2127704;27;20283;-45
2021/08/20 04:06:46;;;;;;;16.30;9.77;;;;;;;;;;2130989;27;20038;-47
2021/08/20 04:07:47;;;;;;;15.63;9.93;;;;;;;;;;2131220;27;20047;-44
2021/08/20 04:08:48;;;;;;;16.67;10.00;;;;;;;;;;2128132;27;20047;-47
2021/08/20 04:09:49;;;;;;;14.52;9.55;;;;;;;;;;2122654;28;20441;-44
2021/08/20 04:10:50;;;;;;;13.73;9.67;;;;;;;;;;2122635;28;20058;-46
2021/08/20 04:11:51;;;;;;;16.10;9.75;;;;;;;;;;2126410;27;20118;-44
2021/08/20 04:12:53;;;;;;;16.80;10.07;;;;;;;;;;2131259;27;20043;-44
2021/08/20 04:13:55;;;;;;;14.30;9.00;;;;;;;;;;2130355;27;20145;-47
2021/08/20 04:14:56;;;;;;;13.20;9.90;;;;;;;;;;2126907;27;20500;-44
2021/08/20 04:15:57;;;;;;;16.10;9.48;;;;;;;;;;2131085;27;20141;-45
2021/08/20 04:16:58;;;;;;;11.63;8.87;;;;;;;;;;2130824;27;20042;-45
2021/08/20 04:17:59;;;;;;;22.30;9.80;;;;;;;;;;2128193;27;20639;-47
2021/08/20 04:19:00;;;;;;;11.87;9.23;;;;;;;;;;2131424;27;20098;-44
2021/08/20 04:20:01;;;;;;;11.20;8.32;;;;;;;;;;2128149;27;20444;-46
2021/08/20 04:21:02;;;;;;;12.23;8.60;;;;;;;;;;2128020;27;20038;-43
2021/08/20 04:22:03;;;;;;;18.52;9.90;;;;;;;;;;2131261;27;20039;-44
2021/08/20 04:23:05;;;;;;;11.27;8.73;;;;;;;;;;2127378;27;20491;-44
2021/08/20 04:24:06;;;;;;;;;;;;;;;;;;2128861;27;20442;-45
2021/08/20 04:25:08;;;;;;;13.43;8.93;;;;;;;;;;2131119;27;20241;-44
2021/08/20 04:26:09;;;;;;;12.98;8.25;;;;;;;;;;2128953;27;20061;-45
2021/08/20 04:27:10;;;;;;;11.82;7.40;;;;;;;;;;2129051;27;20134;-46
2021/08/20 04:28:11;;;;;;;13.40;8.70;;;;;;;;;;2131200;27;20495;-48
2021/08/20 04:29:13;;;;;;;14.05;8.10;;;;;;;;;;2128037;27;20503;-45
2021/08/20 04:30:14;;;;;;;11.07;8.23;;;;;;;;;;2129394;27;20125;-45
2021/08/20 04:31:15;;;;;;;14.77;8.65;;;;;;;;;;2131060;27;20490;-44
2021/08/20 04:32:16;;;;;;;13.75;9.00;;;;;;;;;;2128910;27;20043;-47
2021/08/20 04:33:17;;;;;;;12.00;8.40;;;;;;;;;;2123914;27;20537;-44
2021/08/20 04:34:18;;;;;;;13.75;8.50;;;;;;;;;;2122423;28;20064;-45
2021/08/20 04:35:19;;;;;;;14.57;8.68;;;;;;;;;;2125054;27;20125;-48
2021/08/20 04:36:20;;;;;;;11.50;8.37;;;;;;;;;;2130002;27;20492;-45
2021/08/20 04:37:23;;;;;;;12.77;9.13;;;;;;;;;;2130922;27;20047;-45
2021/08/20 04:38:24;;;;;;;15.00;9.45;;;;;;;;;;2126163;27;20069;-44
2021/08/20 04:39:25;;;;;;;12.75;9.60;;;;;;;;;;2130964;27;20488;-44
2021/08/20 04:40:26;;;;;;;13.67;9.77;;;;;;;;;;2130997;27;20095;-48
2021/08/20 04:41:27;;;;;;;11.07;8.13;;;;;;;;;;2126235;27;20066;-45
2021/08/20 04:42:28;;;;;;;15.93;9.93;;;;;;;;;;2131106;27;20061;-45
2021/08/20 04:43:29;;;;;;;12.75;8.80;;;;;;;;;;2131157;27;20047;-46
2021/08/20 04:44:31;;;;;;;15.27;9.57;;;;;;;;;;2125563;27;20404;-45
2021/08/20 04:45:32;;;;;;;;;;;;;;;;;;2131425;27;20090;-44
2021/08/20 04:46:33;;;;;;;11.52;8.82;;;;;;;;;;2130594;27;19923;-47
2021/08/20 04:47:34;;;;;;;17.48;9.60;;;;;;;;;;2127815;27;20035;-44
2021/08/20 04:48:35;;;;;;;15.87;10.77;;;;;;;;;;2130970;27;20556;-45
2021/08/20 04:49:36;;;;;;;14.70;10.90;;;;;;;;;;2130341;27;20444;-46
2021/08/20 04:50:38;;;;;;;18.30;10.73;;;;;;;;;;2126308;27;20043;-47
2021/08/20 04:51:38;;;;;;;17.05;10.07;;;;;;;;;;2122333;28;20399;-46
2021/08/20 04:52:40;;;;;;;13.35;10.00;;;;;;;;;;2123873;27;20039;-45
2021/08/20 04:53:41;;;;;;;16.50;10.50;;;;;;;;;;2127774;27;20121;-45
2021/08/20 04:54:42;;;;;;;19.90;11.03;;;;;;;;;;2131108;27;20054;-46
2021/08/20 04:55:43;;;;;;;16.00;10.63;;;;;;;;;;2128747;27;20103;-46
2021/08/20 04:56:44;;;;;;;20.47;9.90;;;;;;;;;;2128269;27;20084;-45
2021/08/20 04:57:45;;;;;;;15.63;10.07;;;;;;;;;;2131024;27;20340;-44
2021/08/20 04:58:47;;;;;;;15.53;10.50;;;;;;;;;;2128802;27;20440;-45
2021/08/20 04:59:49;;;;;;;14.10;10.13;;;;;;;;;;2124488;27;20049;-46
2021/08/20 05:00:50;;;;;;;16.92;9.52;;;;;;;;;;2123700;28;20053;-44
2021/08/20 05:01:51;;;;;;;13.50;8.73;;;;;;;;;;2125280;27;20047;-45
2021/08/20 05:02:53;;;;;;;15.18;8.68;;;;;;;;;;2131042;27;20498;-46
2021/08/20 05:03:54;;;;;;;12.52;8.25;;;;;;;;;;2132477;27;20138;-47
2021/08/20 05:04:55;;;;;;;13.77;7.82;;;;;;;;;;2129959;27;20470;-45
2021/08/20 05:05:56;;;;;;;12.33;7.23;;;;;;;;;;2124629;27;20043;-45
2021/08/20 05:06:57;;;;;;;12.98;6.90;;;;;;;;;;2123942;28;20071;-47
2021/08/20 05:07:58;;;;;;;12.40;7.07;;;;;;;;;;2124717;27;20074;-45
2021/08/20 05:09:00;;;;;;;12.88;7.75;;;;;;;;;;2131688;27;20070;-46
2021/08/20 05:10:05;;;;;;;12.98;8.05;;;;;;;;;;2132447;27;20389;-45
2021/08/20 05:11:06;;;;;;;17.90;8.18;;;;;;;;;;2127628;27;20180;-44
2021/08/20 05:12:08;;;;;;;9.98;6.95;;;;;;;;;;2132314;27;20043;-46
2021/08/20 05:13:09;;;;;;;13.65;7.35;;;;;;;;;;2132421;27;20050;-46
2021/08/20 05:14:10;;;;;;;9.32;6.40;;;;;;;;;;2127519;27;20406;-48
2021/08/20 05:15:12;;;;;;;10.30;7.17;;;;;;;;;;2125916;27;20051;-46
2021/08/20 05:16:12;;;;;;;;;;;;;;;;;;2124134;27;20130;-44
2021/08/20 05:17:14;;;;;;;13.07;7.55;;;;;;;;;;2126059;27;19920;-45
2021/08/20 05:18:14;;;;;;;12.25;6.78;;;;;;;;;;2131549;27;20543;-47
2021/08/20 05:19:15;;;;;;;12.80;7.60;;;;;;;;;;2130836;27;20092;-45
2021/08/20 05:20:16;;;;;;;22.95;8.30;;;;;;;;;;2125639;27;20134;-51
2021/08/20 05:21:18;;;;;;;11.43;7.88;;;;;;;;;;2127827;27;20043;-47
2021/08/20 05:22:18;;;;;;;13.77;7.20;;;;;;;;;;2129328;27;20445;-48
2021/08/20 05:23:20;;;;;;;13.40;7.43;;;;;;;;;;2127358;27;20092;-46
2021/08/20 05:24:20;;;;;;;9.85;6.90;;;;;;;;;;2131350;27;20503;-45
2021/08/20 05:25:22;;;;;;;10.73;6.93;;;;;;;;;;2130496;27;20043;-44
2021/08/20 05:26:25;;;;;;;8.93;6.53;;;;;;;;;;2131184;27;20076;-45
2021/08/20 05:27:26;;;;;;;14.52;7.63;;;;;;;;;;2131531;27;20175;-47
2021/08/20 05:28:27;;;;;;;12.45;7.53;;;;;;;;;;2126745;27;20133;-47
2021/08/20 05:29:28;;;;;;;10.32;6.40;;;;;;;;;;2130697;27;20129;-48
2021/08/20 05:30:30;;;;;;;12.27;6.40;;;;;;;;;;2131577;27;20479;-45
2021/08/20 05:31:31;;;;;;;8.35;5.22;;;;;;;;;;2129995;27;20043;-46
2021/08/20 05:32:32;;;;;;;7.55;5.40;;;;;;;;;;2130472;27;20046;-44
2021/08/20 05:33:34;;;;;;;9.15;6.15;;;;;;;;;;2131726;27;20046;-46
2021/08/20 05:34:36;;;;;;;11.57;6.10;;;;;;;;;;2129870;27;20107;-45
2021/08/20 05:35:38;;;;;;;11.63;6.10;;;;;;;;;;2130342;27;20151;-48
2021/08/20 05:36:39;;;;;;;10.25;6.28;;;;;;;;;;2131520;27;20593;-48
2021/08/20 05:37:40;;;;;;;10.67;5.90;;;;;;;;;;2128815;27;20070;-45
2021/08/20 05:38:42;;;;;;;11.18;6.32;;;;;;;;;;2130894;27;20396;-45
2021/08/20 05:39:43;;;;;;;10.07;6.18;;;;;;;;;;2131780;27;20125;-47
2021/08/20 05:40:44;;;;;;;9.50;6.13;;;;;;;;;;2128493;27;20039;-44
2021/08/20 05:41:45;;;;;;;8.40;5.35;;;;;;;;;;2130981;27;20080;-45
2021/08/20 05:42:46;;;;;;;9.57;6.27;;;;;;;;;;2131441;27;20087;-46
2021/08/20 05:43:47;;;;;;;8.23;5.65;;;;;;;;;;2126715;27;20651;-46
2021/08/20 05:44:48;;;;;;;7.53;4.93;;;;;;;;;;2131682;27;20043;-46
2021/08/20 05:45:50;;;;;;;7.10;5.20;;;;;;;;;;2131194;27;20049;-44
2021/08/20 05:46:51;;;;;;;7.68;4.97;;;;;;;;;;2127583;27;20160;-45
2021/08/20 05:47:52;;;;;;;8.98;4.93;;;;;;;;;;2131934;27;20512;-46
2021/08/20 05:48:53;;;;;;;8.13;5.03;;;;;;;;;;2131458;27;20126;-45
2021/08/20 05:49:54;;;;;;;10.15;5.43;;;;;;;;;;2128305;27;20135;-46
2021/08/20 05:50:55;;;;;;;6.97;4.72;;;;;;;;;;2131373;27;20042;-47
2021/08/20 05:51:56;;;;;;;9.60;4.78;;;;;;;;;;2130771;27;20134;-46
2021/08/20 05:52:57;;;;;;;9.33;4.87;;;;;;;;;;2127371;27;20452;-48
2021/08/20 05:53:58;;;;;;;7.03;4.55;;;;;;;;;;2131758;27;20042;-44
2021/08/20 05:54:59;;;;;;;6.78;4.97;;;;;;;;;;2129471;27;20368;-45
2021/08/20 05:56:01;;;;;;;9.63;4.88;;;;;;;;;;2128638;27;20043;-45
2021/08/20 05:57:02;;;;;;;6.35;4.50;;;;;;;;;;2132448;27;20153;-47
2021/08/20 05:58:05;;;;;;;11.27;5.45;;;;;;;;;;2129682;27;20047;-46
2021/08/20 05:59:06;;;;;;;7.60;4.43;;;;;;;;;;2130864;27;20118;-48
2021/08/20 06:00:07;;;;;;;9.98;5.07;;;;;;;;;;2130011;27;20144;-46
2021/08/20 06:01:09;;;;;;;6.63;4.97;;;;;;;;;;2128633;27;20722;-48
2021/08/20 06:02:11;;;;;;;10.05;4.30;;;;;;;;;;2128515;27;20475;-46